sensor_id;sensor_type;location;lat;lon;timestamp;P1;durP1;ratioP1;P2;durP2;ratioP2
70426;SDS011;57872;55.432;37.248;2023-05-31T00:04:42;12.57;;;4.47;;
70426;SDS011;57872;55.432;37.248;2023-05-31T00:09:42;8.65;;;4.10;;
70426;SDS011;57872;55.432;37.248;2023-05-31T00:14:43;8.38;;;3.95;;
70426;SDS011;57872;55.432;37.248;2023-05-31T00:19:44;9.50;;;3.90;;
70426;SDS011;57872;55.432;37.248;2023-05-31T00:24:44;11.27;;;4.07;;
70426;SDS011;57872;55.432;37.248;2023-05-31T00:29:45;9.13;;;4.35;;
70426;SDS011;57872;55.432;37.248;2023-05-31T00:34:46;9.57;;;3.92;;
70426;SDS011;57872;55.432;37.248;2023-05-31T00:39:46;7.65;;;3.75;;
70426;SDS011;57872;55.432;37.248;2023-05-31T00:44:47;9.73;;;3.50;;
70426;SDS011;57872;55.432;37.248;2023-05-31T00:49:49;10.60;;;3.35;;
70426;SDS011;57872;55.432;37.248;2023-05-31T00:55:05;7.63;;;3.35;;
70426;SDS011;57872;55.432;37.248;2023-05-31T01:00:06;8.15;;;3.28;;
70426;SDS011;57872;55.432;37.248;2023-05-31T01:05:17;7.00;;;3.20;;
70426;SDS011;57872;55.432;37.248;2023-05-31T01:10:18;9.07;;;3.30;;
70426;SDS011;57872;55.432;37.248;2023-05-31T01:15:21;8.85;;;3.03;;
70426;SDS011;57872;55.432;37.248;2023-05-31T01:20:23;9.52;;;3.63;;
70426;SDS011;57872;55.432;37.248;2023-05-31T01:25:27;8.85;;;3.08;;
70426;SDS011;57872;55.432;37.248;2023-05-31T01:35:59;6.30;;;2.83;;
70426;SDS011;57872;55.432;37.248;2023-05-31T01:40:59;7.25;;;3.08;;
70426;SDS011;57872;55.432;37.248;2023-05-31T01:46:01;7.25;;;3.10;;
70426;SDS011;57872;55.432;37.248;2023-05-31T01:51:02;7.38;;;3.08;;
70426;SDS011;57872;55.432;37.248;2023-05-31T01:56:04;7.15;;;3.13;;
70426;SDS011;57872;55.432;37.248;2023-05-31T02:01:05;6.90;;;3.30;;
70426;SDS011;57872;55.432;37.248;2023-05-31T02:06:06;7.35;;;2.95;;
70426;SDS011;57872;55.432;37.248;2023-05-31T02:11:07;10.95;;;3.30;;
70426;SDS011;57872;55.432;37.248;2023-05-31T02:16:09;6.40;;;3.05;;
70426;SDS011;57872;55.432;37.248;2023-05-31T02:21:10;11.20;;;3.08;;
70426;SDS011;57872;55.432;37.248;2023-05-31T02:26:10;6.43;;;3.10;;
70426;SDS011;57872;55.432;37.248;2023-05-31T02:31:11;7.82;;;3.33;;
70426;SDS011;57872;55.432;37.248;2023-05-31T02:36:12;6.82;;;3.05;;
70426;SDS011;57872;55.432;37.248;2023-05-31T02:41:12;6.38;;;2.78;;
70426;SDS011;57872;55.432;37.248;2023-05-31T02:46:14;11.38;;;3.50;;
70426;SDS011;57872;55.432;37.248;2023-05-31T02:51:17;6.70;;;3.17;;
70426;SDS011;57872;55.432;37.248;2023-05-31T02:56:44;9.40;;;3.60;;
70426;SDS011;57872;55.432;37.248;2023-05-31T03:01:53;9.63;;;3.70;;
70426;SDS011;57872;55.432;37.248;2023-05-31T03:07:13;8.98;;;4.15;;
70426;SDS011;57872;55.432;37.248;2023-05-31T03:17:53;10.48;;;4.03;;
70426;SDS011;57872;55.432;37.248;2023-05-31T03:22:55;7.60;;;3.53;;
70426;SDS011;57872;55.432;37.248;2023-05-31T03:27:55;6.88;;;3.30;;
70426;SDS011;57872;55.432;37.248;2023-05-31T03:32:57;8.13;;;3.67;;
70426;SDS011;57872;55.432;37.248;2023-05-31T03:37:58;8.60;;;3.25;;
70426;SDS011;57872;55.432;37.248;2023-05-31T03:43:02;9.02;;;3.40;;
70426;SDS011;57872;55.432;37.248;2023-05-31T03:48:03;8.48;;;3.47;;
70426;SDS011;57872;55.432;37.248;2023-05-31T03:53:03;7.85;;;3.55;;
70426;SDS011;57872;55.432;37.248;2023-05-31T03:58:05;6.18;;;3.13;;
70426;SDS011;57872;55.432;37.248;2023-05-31T04:03:10;6.50;;;2.80;;
70426;SDS011;57872;55.432;37.248;2023-05-31T04:08:40;7.50;;;3.20;;
70426;SDS011;57872;55.432;37.248;2023-05-31T04:13:39;6.45;;;2.90;;
70426;SDS011;57872;55.432;37.248;2023-05-31T04:18:43;6.15;;;3.50;;
70426;SDS011;57872;55.432;37.248;2023-05-31T04:23:44;7.72;;;3.00;;
70426;SDS011;57872;55.432;37.248;2023-05-31T04:28:48;6.97;;;3.40;;
70426;SDS011;57872;55.432;37.248;2023-05-31T04:33:58;6.40;;;3.22;;
70426;SDS011;57872;55.432;37.248;2023-05-31T04:39:04;7.13;;;3.00;;
70426;SDS011;57872;55.432;37.248;2023-05-31T04:44:13;7.03;;;3.38;;
70426;SDS011;57872;55.432;37.248;2023-05-31T04:49:16;6.55;;;2.92;;
70426;SDS011;57872;55.432;37.248;2023-05-31T04:54:24;7.40;;;3.60;;
70426;SDS011;57872;55.432;37.248;2023-05-31T05:00:00;8.43;;;3.08;;
70426;SDS011;57872;55.432;37.248;2023-05-31T05:05:28;6.05;;;2.72;;
70426;SDS011;57872;55.432;37.248;2023-05-31T05:10:33;7.50;;;3.10;;
70426;SDS011;57872;55.432;37.248;2023-05-31T05:15:41;7.38;;;3.50;;
70426;SDS011;57872;55.432;37.248;2023-05-31T05:20:42;6.03;;;2.90;;
70426;SDS011;57872;55.432;37.248;2023-05-31T05:25:44;6.47;;;3.35;;
70426;SDS011;57872;55.432;37.248;2023-05-31T05:30:46;6.78;;;3.22;;
70426;SDS011;57872;55.432;37.248;2023-05-31T05:36:21;7.63;;;2.88;;
70426;SDS011;57872;55.432;37.248;2023-05-31T05:41:56;6.38;;;2.80;;
70426;SDS011;57872;55.432;37.248;2023-05-31T05:47:04;5.85;;;2.67;;
70426;SDS011;57872;55.432;37.248;2023-05-31T05:52:05;5.93;;;2.80;;
70426;SDS011;57872;55.432;37.248;2023-05-31T05:57:07;6.85;;;3.05;;
70426;SDS011;57872;55.432;37.248;2023-05-31T06:02:15;6.93;;;2.40;;
70426;SDS011;57872;55.432;37.248;2023-05-31T06:07:19;6.88;;;3.00;;
70426;SDS011;57872;55.432;37.248;2023-05-31T06:12:34;5.85;;;3.00;;
70426;SDS011;57872;55.432;37.248;2023-05-31T06:17:35;6.50;;;3.47;;
70426;SDS011;57872;55.432;37.248;2023-05-31T06:23:04;7.78;;;3.53;;
70426;SDS011;57872;55.432;37.248;2023-05-31T06:28:22;6.45;;;3.28;;
70426;SDS011;57872;55.432;37.248;2023-05-31T06:34:17;7.28;;;3.20;;
70426;SDS011;57872;55.432;37.248;2023-05-31T06:39:59;6.10;;;2.75;;
70426;SDS011;57872;55.432;37.248;2023-05-31T06:45:39;7.40;;;2.97;;
70426;SDS011;57872;55.432;37.248;2023-05-31T06:51:26;5.57;;;2.38;;
70426;SDS011;57872;55.432;37.248;2023-05-31T06:57:20;6.63;;;2.38;;
70426;SDS011;57872;55.432;37.248;2023-05-31T07:02:42;6.10;;;2.20;;
70426;SDS011;57872;55.432;37.248;2023-05-31T07:08:05;5.30;;;2.33;;
70426;SDS011;57872;55.432;37.248;2023-05-31T07:13:42;6.07;;;2.78;;
70426;SDS011;57872;55.432;37.248;2023-05-31T07:18:42;5.45;;;2.38;;
70426;SDS011;57872;55.432;37.248;2023-05-31T07:23:43;5.30;;;2.28;;
70426;SDS011;57872;55.432;37.248;2023-05-31T07:30:12;6.00;;;2.38;;
70426;SDS011;57872;55.432;37.248;2023-05-31T07:35:25;6.95;;;2.38;;
70426;SDS011;57872;55.432;37.248;2023-05-31T07:41:19;5.75;;;2.00;;
70426;SDS011;57872;55.432;37.248;2023-05-31T07:46:42;4.65;;;1.90;;
70426;SDS011;57872;55.432;37.248;2023-05-31T07:52:09;4.68;;;1.80;;
70426;SDS011;57872;55.432;37.248;2023-05-31T07:57:51;6.97;;;1.98;;
70426;SDS011;57872;55.432;37.248;2023-05-31T08:03:09;6.18;;;2.10;;
70426;SDS011;57872;55.432;37.248;2023-05-31T08:08:09;5.22;;;2.10;;
70426;SDS011;57872;55.432;37.248;2023-05-31T08:13:21;5.72;;;2.00;;
70426;SDS011;57872;55.432;37.248;2023-05-31T08:23:51;6.72;;;2.33;;
70426;SDS011;57872;55.432;37.248;2023-05-31T08:29:02;6.65;;;2.15;;
70426;SDS011;57872;55.432;37.248;2023-05-31T08:34:03;5.80;;;1.80;;
70426;SDS011;57872;55.432;37.248;2023-05-31T08:39:20;5.05;;;1.60;;
70426;SDS011;57872;55.432;37.248;2023-05-31T08:44:48;6.97;;;2.17;;
70426;SDS011;57872;55.432;37.248;2023-05-31T08:50:00;4.70;;;1.92;;
70426;SDS011;57872;55.432;37.248;2023-05-31T08:55:09;5.95;;;2.15;;
70426;SDS011;57872;55.432;37.248;2023-05-31T09:00:10;8.15;;;2.15;;
70426;SDS011;57872;55.432;37.248;2023-05-31T09:11:28;6.60;;;2.47;;
70426;SDS011;57872;55.432;37.248;2023-05-31T09:16:31;7.15;;;2.50;;
70426;SDS011;57872;55.432;37.248;2023-05-31T09:21:39;6.55;;;2.60;;
70426;SDS011;57872;55.432;37.248;2023-05-31T09:26:48;6.97;;;2.40;;
70426;SDS011;57872;55.432;37.248;2023-05-31T09:31:49;6.90;;;2.45;;
70426;SDS011;57872;55.432;37.248;2023-05-31T09:37:07;5.55;;;2.60;;
70426;SDS011;57872;55.432;37.248;2023-05-31T09:42:11;6.70;;;3.08;;
70426;SDS011;57872;55.432;37.248;2023-05-31T09:47:15;6.18;;;2.60;;
70426;SDS011;57872;55.432;37.248;2023-05-31T09:52:15;6.18;;;2.70;;
70426;SDS011;57872;55.432;37.248;2023-05-31T09:57:32;7.35;;;3.17;;
70426;SDS011;57872;55.432;37.248;2023-05-31T10:02:44;6.55;;;3.20;;
70426;SDS011;57872;55.432;37.248;2023-05-31T10:07:53;7.20;;;3.45;;
70426;SDS011;57872;55.432;37.248;2023-05-31T10:13:00;8.60;;;3.10;;
70426;SDS011;57872;55.432;37.248;2023-05-31T10:18:05;7.68;;;3.03;;
70426;SDS011;57872;55.432;37.248;2023-05-31T10:34:22;8.20;;;2.83;;
70426;SDS011;57872;55.432;37.248;2023-05-31T10:45:41;6.20;;;2.60;;
70426;SDS011;57872;55.432;37.248;2023-05-31T10:50:58;8.43;;;2.95;;
70426;SDS011;57872;55.432;37.248;2023-05-31T10:56:10;7.93;;;2.65;;
70426;SDS011;57872;55.432;37.248;2023-05-31T11:01:35;7.43;;;2.33;;
70426;SDS011;57872;55.432;37.248;2023-05-31T11:12:17;11.82;;;2.60;;
70426;SDS011;57872;55.432;37.248;2023-05-31T11:17:50;7.57;;;2.42;;
70426;SDS011;57872;55.432;37.248;2023-05-31T11:28:17;6.00;;;2.17;;
70426;SDS011;57872;55.432;37.248;2023-05-31T11:33:18;8.48;;;2.50;;
70426;SDS011;57872;55.432;37.248;2023-05-31T11:38:19;7.85;;;2.38;;
70426;SDS011;57872;55.432;37.248;2023-05-31T11:43:22;7.32;;;2.50;;
70426;SDS011;57872;55.432;37.248;2023-05-31T11:48:35;6.15;;;2.58;;
70426;SDS011;57872;55.432;37.248;2023-05-31T11:53:39;7.85;;;2.97;;
70426;SDS011;57872;55.432;37.248;2023-05-31T11:58:45;8.88;;;2.75;;
70426;SDS011;57872;55.432;37.248;2023-05-31T12:03:56;7.32;;;3.00;;
70426;SDS011;57872;55.432;37.248;2023-05-31T12:08:58;8.05;;;2.60;;
70426;SDS011;57872;55.432;37.248;2023-05-31T12:13:59;7.53;;;2.95;;
70426;SDS011;57872;55.432;37.248;2023-05-31T12:19:00;8.75;;;2.83;;
70426;SDS011;57872;55.432;37.248;2023-05-31T12:24:00;8.00;;;3.08;;
70426;SDS011;57872;55.432;37.248;2023-05-31T12:29:14;6.63;;;2.90;;
70426;SDS011;57872;55.432;37.248;2023-05-31T12:34:19;6.93;;;3.10;;
70426;SDS011;57872;55.432;37.248;2023-05-31T12:39:23;7.28;;;3.25;;
70426;SDS011;57872;55.432;37.248;2023-05-31T12:44:28;6.13;;;2.78;;
70426;SDS011;57872;55.432;37.248;2023-05-31T12:49:31;6.18;;;2.22;;
70426;SDS011;57872;55.432;37.248;2023-05-31T12:54:33;6.70;;;2.63;;
70426;SDS011;57872;55.432;37.248;2023-05-31T12:59:35;9.10;;;2.75;;
70426;SDS011;57872;55.432;37.248;2023-05-31T13:04:37;6.88;;;2.72;;
70426;SDS011;57872;55.432;37.248;2023-05-31T13:09:37;8.27;;;2.35;;
70426;SDS011;57872;55.432;37.248;2023-05-31T13:14:38;9.32;;;2.88;;
70426;SDS011;57872;55.432;37.248;2023-05-31T13:19:39;6.70;;;2.20;;
70426;SDS011;57872;55.432;37.248;2023-05-31T13:24:39;7.20;;;2.63;;
70426;SDS011;57872;55.432;37.248;2023-05-31T13:29:43;46.00;;;33.28;;
70426;SDS011;57872;55.432;37.248;2023-05-31T13:34:44;6.20;;;2.85;;
70426;SDS011;57872;55.432;37.248;2023-05-31T13:39:44;7.35;;;2.72;;
70426;SDS011;57872;55.432;37.248;2023-05-31T13:44:45;5.13;;;2.20;;
70426;SDS011;57872;55.432;37.248;2023-05-31T13:49:46;6.85;;;2.63;;
70426;SDS011;57872;55.432;37.248;2023-05-31T13:54:47;8.55;;;2.28;;
70426;SDS011;57872;55.432;37.248;2023-05-31T13:59:47;6.55;;;2.20;;
70426;SDS011;57872;55.432;37.248;2023-05-31T14:04:51;11.75;;;5.30;;
70426;SDS011;57872;55.432;37.248;2023-05-31T14:09:52;6.90;;;2.38;;
70426;SDS011;57872;55.432;37.248;2023-05-31T14:14:53;7.72;;;2.72;;
70426;SDS011;57872;55.432;37.248;2023-05-31T14:19:54;9.18;;;2.67;;
70426;SDS011;57872;55.432;37.248;2023-05-31T14:25:00;6.47;;;2.50;;
70426;SDS011;57872;55.432;37.248;2023-05-31T14:30:01;9.15;;;5.00;;
70426;SDS011;57872;55.432;37.248;2023-05-31T14:35:02;8.88;;;2.72;;
70426;SDS011;57872;55.432;37.248;2023-05-31T14:40:03;8.63;;;2.83;;
70426;SDS011;57872;55.432;37.248;2023-05-31T14:45:05;8.15;;;3.17;;
70426;SDS011;57872;55.432;37.248;2023-05-31T14:50:07;8.88;;;2.70;;
70426;SDS011;57872;55.432;37.248;2023-05-31T14:55:08;8.68;;;3.20;;
70426;SDS011;57872;55.432;37.248;2023-05-31T15:00:08;7.50;;;3.22;;
70426;SDS011;57872;55.432;37.248;2023-05-31T15:05:19;57.00;;;45.67;;
70426;SDS011;57872;55.432;37.248;2023-05-31T15:17:21;9.68;;;3.75;;
70426;SDS011;57872;55.432;37.248;2023-05-31T15:22:25;8.45;;;3.20;;
70426;SDS011;57872;55.432;37.248;2023-05-31T15:27:28;8.00;;;3.22;;
70426;SDS011;57872;55.432;37.248;2023-05-31T15:32:35;9.95;;;5.35;;
70426;SDS011;57872;55.432;37.248;2023-05-31T15:37:47;10.13;;;3.35;;
70426;SDS011;57872;55.432;37.248;2023-05-31T15:43:01;8.63;;;3.72;;
70426;SDS011;57872;55.432;37.248;2023-05-31T15:48:13;7.90;;;3.00;;
70426;SDS011;57872;55.432;37.248;2023-05-31T15:53:39;9.38;;;3.20;;
70426;SDS011;57872;55.432;37.248;2023-05-31T15:58:41;12.80;;;6.10;;
70426;SDS011;57872;55.432;37.248;2023-05-31T16:03:45;9.35;;;3.63;;
70426;SDS011;57872;55.432;37.248;2023-05-31T16:08:50;14.10;;;4.33;;
70426;SDS011;57872;55.432;37.248;2023-05-31T16:13:55;11.00;;;4.22;;
70426;SDS011;57872;55.432;37.248;2023-05-31T16:18:56;8.82;;;3.60;;
70426;SDS011;57872;55.432;37.248;2023-05-31T16:24:05;14.32;;;4.20;;
70426;SDS011;57872;55.432;37.248;2023-05-31T16:29:19;7.75;;;3.13;;
70426;SDS011;57872;55.432;37.248;2023-05-31T16:34:20;7.55;;;3.08;;
70426;SDS011;57872;55.432;37.248;2023-05-31T16:39:26;8.90;;;3.15;;
70426;SDS011;57872;55.432;37.248;2023-05-31T16:44:27;9.60;;;3.25;;
70426;SDS011;57872;55.432;37.248;2023-05-31T16:49:28;8.15;;;3.58;;
70426;SDS011;57872;55.432;37.248;2023-05-31T16:54:29;10.70;;;3.80;;
70426;SDS011;57872;55.432;37.248;2023-05-31T16:59:49;13.73;;;3.90;;
70426;SDS011;57872;55.432;37.248;2023-05-31T17:10:25;11.13;;;4.18;;
70426;SDS011;57872;55.432;37.248;2023-05-31T17:16:11;8.98;;;3.53;;
70426;SDS011;57872;55.432;37.248;2023-05-31T17:21:14;8.50;;;3.53;;
70426;SDS011;57872;55.432;37.248;2023-05-31T17:26:18;8.02;;;3.42;;
70426;SDS011;57872;55.432;37.248;2023-05-31T17:31:22;10.55;;;3.40;;
70426;SDS011;57872;55.432;37.248;2023-05-31T17:36:23;9.27;;;3.28;;
70426;SDS011;57872;55.432;37.248;2023-05-31T17:41:24;8.93;;;3.80;;
70426;SDS011;57872;55.432;37.248;2023-05-31T17:46:25;11.60;;;4.63;;
70426;SDS011;57872;55.432;37.248;2023-05-31T17:51:35;9.45;;;4.20;;
70426;SDS011;57872;55.432;37.248;2023-05-31T17:57:10;10.23;;;4.35;;
70426;SDS011;57872;55.432;37.248;2023-05-31T18:02:56;9.52;;;3.90;;
70426;SDS011;57872;55.432;37.248;2023-05-31T18:07:57;11.80;;;4.30;;
70426;SDS011;57872;55.432;37.248;2023-05-31T18:12:58;10.32;;;3.95;;
70426;SDS011;57872;55.432;37.248;2023-05-31T18:17:58;9.45;;;4.32;;
70426;SDS011;57872;55.432;37.248;2023-05-31T18:23:10;8.93;;;3.70;;
70426;SDS011;57872;55.432;37.248;2023-05-31T18:29:08;8.32;;;3.95;;
70426;SDS011;57872;55.432;37.248;2023-05-31T18:34:09;13.13;;;4.18;;
70426;SDS011;57872;55.432;37.248;2023-05-31T18:39:19;9.82;;;4.10;;
70426;SDS011;57872;55.432;37.248;2023-05-31T18:50:17;9.00;;;5.10;;
70426;SDS011;57872;55.432;37.248;2023-05-31T18:55:28;11.32;;;4.85;;
70426;SDS011;57872;55.432;37.248;2023-05-31T19:00:48;11.25;;;5.57;;
70426;SDS011;57872;55.432;37.248;2023-05-31T19:06:06;40.95;;;21.35;;
70426;SDS011;57872;55.432;37.248;2023-05-31T19:11:56;59.92;;;31.85;;
70426;SDS011;57872;55.432;37.248;2023-05-31T19:16:57;53.70;;;29.02;;
70426;SDS011;57872;55.432;37.248;2023-05-31T19:21:58;57.97;;;30.85;;
70426;SDS011;57872;55.432;37.248;2023-05-31T19:26:59;44.88;;;23.15;;
70426;SDS011;57872;55.432;37.248;2023-05-31T19:32:06;61.85;;;31.83;;
70426;SDS011;57872;55.432;37.248;2023-05-31T19:37:07;61.67;;;34.20;;
70426;SDS011;57872;55.432;37.248;2023-05-31T19:42:10;32.95;;;18.23;;
70426;SDS011;57872;55.432;37.248;2023-05-31T19:47:11;25.50;;;13.55;;
70426;SDS011;57872;55.432;37.248;2023-05-31T19:52:12;16.02;;;6.70;;
70426;SDS011;57872;55.432;37.248;2023-05-31T19:57:13;16.05;;;7.15;;
70426;SDS011;57872;55.432;37.248;2023-05-31T20:02:15;15.77;;;7.13;;
70426;SDS011;57872;55.432;37.248;2023-05-31T20:07:16;27.45;;;13.63;;
70426;SDS011;57872;55.432;37.248;2023-05-31T20:12:17;32.25;;;16.38;;
70426;SDS011;57872;55.432;37.248;2023-05-31T20:17:19;21.27;;;12.38;;
70426;SDS011;57872;55.432;37.248;2023-05-31T20:22:32;21.75;;;11.63;;
70426;SDS011;57872;55.432;37.248;2023-05-31T20:27:33;17.87;;;7.93;;
70426;SDS011;57872;55.432;37.248;2023-05-31T20:32:36;15.60;;;6.90;;
70426;SDS011;57872;55.432;37.248;2023-05-31T20:37:37;12.02;;;5.68;;
70426;SDS011;57872;55.432;37.248;2023-05-31T20:42:37;13.07;;;6.55;;
70426;SDS011;57872;55.432;37.248;2023-05-31T20:47:44;18.75;;;7.43;;
70426;SDS011;57872;55.432;37.248;2023-05-31T20:53:24;12.75;;;5.90;;
70426;SDS011;57872;55.432;37.248;2023-05-31T20:58:59;13.20;;;6.00;;
70426;SDS011;57872;55.432;37.248;2023-05-31T21:04:00;11.27;;;6.13;;
70426;SDS011;57872;55.432;37.248;2023-05-31T21:09:00;10.95;;;5.10;;
70426;SDS011;57872;55.432;37.248;2023-05-31T21:14:02;9.98;;;4.55;;
70426;SDS011;57872;55.432;37.248;2023-05-31T21:19:03;12.38;;;4.70;;
70426;SDS011;57872;55.432;37.248;2023-05-31T21:24:04;9.57;;;4.40;;
70426;SDS011;57872;55.432;37.248;2023-05-31T21:29:04;10.68;;;3.88;;
70426;SDS011;57872;55.432;37.248;2023-05-31T21:34:05;9.02;;;4.70;;
70426;SDS011;57872;55.432;37.248;2023-05-31T21:39:06;9.18;;;3.88;;
70426;SDS011;57872;55.432;37.248;2023-05-31T21:44:07;11.07;;;4.47;;
70426;SDS011;57872;55.432;37.248;2023-05-31T21:49:08;7.53;;;3.75;;
70426;SDS011;57872;55.432;37.248;2023-05-31T21:54:09;10.30;;;3.90;;
70426;SDS011;57872;55.432;37.248;2023-05-31T21:59:10;7.80;;;4.07;;
70426;SDS011;57872;55.432;37.248;2023-05-31T22:04:10;8.23;;;3.58;;
70426;SDS011;57872;55.432;37.248;2023-05-31T22:09:11;9.02;;;4.15;;
70426;SDS011;57872;55.432;37.248;2023-05-31T22:14:12;9.73;;;4.18;;
70426;SDS011;57872;55.432;37.248;2023-05-31T22:19:18;9.73;;;4.20;;
70426;SDS011;57872;55.432;37.248;2023-05-31T22:24:25;10.80;;;4.47;;
70426;SDS011;57872;55.432;37.248;2023-05-31T22:29:26;11.02;;;4.25;;
70426;SDS011;57872;55.432;37.248;2023-05-31T22:34:28;9.55;;;4.53;;
70426;SDS011;57872;55.432;37.248;2023-05-31T22:39:29;8.68;;;4.47;;
70426;SDS011;57872;55.432;37.248;2023-05-31T22:44:30;9.23;;;3.80;;
70426;SDS011;57872;55.432;37.248;2023-05-31T22:49:31;7.95;;;3.78;;
70426;SDS011;57872;55.432;37.248;2023-05-31T22:54:32;10.25;;;3.65;;
70426;SDS011;57872;55.432;37.248;2023-05-31T22:59:33;12.18;;;3.90;;
70426;SDS011;57872;55.432;37.248;2023-05-31T23:04:34;9.88;;;4.00;;
70426;SDS011;57872;55.432;37.248;2023-05-31T23:09:35;14.10;;;4.13;;
70426;SDS011;57872;55.432;37.248;2023-05-31T23:14:35;12.07;;;4.45;;
70426;SDS011;57872;55.432;37.248;2023-05-31T23:19:39;9.07;;;4.10;;
70426;SDS011;57872;55.432;37.248;2023-05-31T23:24:40;7.75;;;3.60;;
70426;SDS011;57872;55.432;37.248;2023-05-31T23:29:41;10.32;;;4.13;;
70426;SDS011;57872;55.432;37.248;2023-05-31T23:34:41;9.63;;;3.90;;
70426;SDS011;57872;55.432;37.248;2023-05-31T23:39:42;7.90;;;3.88;;
70426;SDS011;57872;55.432;37.248;2023-05-31T23:44:43;9.45;;;3.70;;
70426;SDS011;57872;55.432;37.248;2023-05-31T23:49:44;20.30;;;9.38;;
70426;SDS011;57872;55.432;37.248;2023-05-31T23:54:45;20.55;;;7.35;;
